sensor_id;sensor_type;location;lat;lon;timestamp;temperature;humidity
935;DHT22;454;53.254;10.400;2023-07-02T04:01:32;15.40;99.90
935;DHT22;454;53.254;10.400;2023-07-02T04:03:59;15.40;99.90
935;DHT22;454;53.254;10.400;2023-07-02T04:06:26;15.50;99.90
935;DHT22;454;53.254;10.400;2023-07-02T04:08:53;15.50;99.90
935;DHT22;454;53.254;10.400;2023-07-02T04:11:19;15.50;99.90
935;DHT22;454;53.254;10.400;2023-07-02T04:13:46;15.50;99.90
935;DHT22;454;53.254;10.400;2023-07-02T04:16:13;15.50;99.90
935;DHT22;454;53.254;10.400;2023-07-02T04:18:41;15.50;99.90
935;DHT22;454;53.254;10.400;2023-07-02T04:21:08;15.50;99.90
935;DHT22;454;53.254;10.400;2023-07-02T04:23:34;15.60;99.90
935;DHT22;454;53.254;10.400;2023-07-02T04:26:01;15.70;99.90
935;DHT22;454;53.254;10.400;2023-07-02T04:28:28;16.00;99.90
935;DHT22;454;53.254;10.400;2023-07-02T04:30:54;16.30;99.90
935;DHT22;454;53.254;10.400;2023-07-02T04:33:21;16.30;99.90
935;DHT22;454;53.254;10.400;2023-07-02T04:35:49;16.30;99.90
935;DHT22;454;53.254;10.400;2023-07-02T04:38:16;16.30;99.90
935;DHT22;454;53.254;10.400;2023-07-02T04:40:43;16.50;99.90
935;DHT22;454;53.254;10.400;2023-07-02T04:43:10;17.00;99.90
935;DHT22;454;53.254;10.400;2023-07-02T04:45:37;17.50;99.90
935;DHT22;454;53.254;10.400;2023-07-02T04:48:05;17.80;99.90
935;DHT22;454;53.254;10.400;2023-07-02T04:50:32;18.30;99.90
935;DHT22;454;53.254;10.400;2023-07-02T04:53:00;18.70;99.90
935;DHT22;454;53.254;10.400;2023-07-02T04:55:27;18.80;99.90
935;DHT22;454;53.254;10.400;2023-07-02T04:57:53;19.20;99.90
935;DHT22;454;53.254;10.400;2023-07-02T05:00:20;19.50;99.90
935;DHT22;454;53.254;10.400;2023-07-02T05:02:48;19.70;99.90
935;DHT22;454;53.254;10.400;2023-07-02T05:05:15;19.80;99.90
935;DHT22;454;53.254;10.400;2023-07-02T05:07:41;20.10;99.90
935;DHT22;454;53.254;10.400;2023-07-02T05:10:10;20.50;99.90
935;DHT22;454;53.254;10.400;2023-07-02T05:12:36;20.60;99.90
935;DHT22;454;53.254;10.400;2023-07-02T05:15:04;20.80;99.90
935;DHT22;454;53.254;10.400;2023-07-02T05:17:31;20.90;99.90
935;DHT22;454;53.254;10.400;2023-07-02T05:20:00;20.80;99.90
935;DHT22;454;53.254;10.400;2023-07-02T05:22:26;20.70;99.90
935;DHT22;454;53.254;10.400;2023-07-02T05:24:53;20.30;99.90
935;DHT22;454;53.254;10.400;2023-07-02T05:27:21;20.10;99.90
935;DHT22;454;53.254;10.400;2023-07-02T05:29:48;20.10;99.90
935;DHT22;454;53.254;10.400;2023-07-02T05:32:15;19.80;99.90
935;DHT22;454;53.254;10.400;2023-07-02T05:34:41;19.70;99.90
935;DHT22;454;53.254;10.400;2023-07-02T05:37:08;19.80;99.90
935;DHT22;454;53.254;10.400;2023-07-02T05:39:35;20.00;99.90
935;DHT22;454;53.254;10.400;2023-07-02T05:42:01;20.00;99.90
935;DHT22;454;53.254;10.400;2023-07-02T05:44:29;20.40;99.90
935;DHT22;454;53.254;10.400;2023-07-02T05:46:56;20.40;99.90
935;DHT22;454;53.254;10.400;2023-07-02T05:49:23;20.70;99.90
935;DHT22;454;53.254;10.400;2023-07-02T05:51:49;20.90;99.90
935;DHT22;454;53.254;10.400;2023-07-02T05:54:16;20.80;99.90
935;DHT22;454;53.254;10.400;2023-07-02T05:56:43;20.70;99.90
935;DHT22;454;53.254;10.400;2023-07-02T05:59:10;20.70;99.90
935;DHT22;454;53.254;10.400;2023-07-02T06:01:39;21.10;99.90
935;DHT22;454;53.254;10.400;2023-07-02T06:04:06;21.40;99.90
935;DHT22;454;53.254;10.400;2023-07-02T06:06:32;21.80;99.90
935;DHT22;454;53.254;10.400;2023-07-02T06:08:59;22.10;99.90
935;DHT22;454;53.254;10.400;2023-07-02T06:11:26;22.10;99.90
935;DHT22;454;53.254;10.400;2023-07-02T06:13:52;22.20;99.90
935;DHT22;454;53.254;10.400;2023-07-02T06:16:20;22.30;99.90
935;DHT22;454;53.254;10.400;2023-07-02T06:18:48;22.70;99.90
935;DHT22;454;53.254;10.400;2023-07-02T06:21:15;22.90;99.90
935;DHT22;454;53.254;10.400;2023-07-02T06:23:42;23.00;99.90
935;DHT22;454;53.254;10.400;2023-07-02T06:26:09;23.30;99.90
935;DHT22;454;53.254;10.400;2023-07-02T06:28:38;23.10;99.90
935;DHT22;454;53.254;10.400;2023-07-02T06:31:05;23.30;99.90
935;DHT22;454;53.254;10.400;2023-07-02T06:33:32;23.40;99.90
935;DHT22;454;53.254;10.400;2023-07-02T06:36:00;23.90;99.90
935;DHT22;454;53.254;10.400;2023-07-02T06:38:27;24.00;99.90
935;DHT22;454;53.254;10.400;2023-07-02T06:40:54;24.20;99.90
935;DHT22;454;53.254;10.400;2023-07-02T06:43:20;24.20;99.90
935;DHT22;454;53.254;10.400;2023-07-02T06:45:47;24.20;99.90
935;DHT22;454;53.254;10.400;2023-07-02T06:48:14;24.30;99.90
935;DHT22;454;53.254;10.400;2023-07-02T06:50:43;24.30;99.90
935;DHT22;454;53.254;10.400;2023-07-02T06:53:12;24.10;99.90
935;DHT22;454;53.254;10.400;2023-07-02T06:55:39;23.80;99.90
935;DHT22;454;53.254;10.400;2023-07-02T06:58:06;23.80;99.90
935;DHT22;454;53.254;10.400;2023-07-02T07:00:33;23.90;99.90
935;DHT22;454;53.254;10.400;2023-07-02T07:03:01;23.90;99.90
935;DHT22;454;53.254;10.400;2023-07-02T07:05:28;23.70;99.90
935;DHT22;454;53.254;10.400;2023-07-02T07:07:55;23.50;99.90
935;DHT22;454;53.254;10.400;2023-07-02T07:10:23;23.90;99.90
935;DHT22;454;53.254;10.400;2023-07-02T07:12:49;23.90;99.90
935;DHT22;454;53.254;10.400;2023-07-02T07:15:16;23.90;99.90
935;DHT22;454;53.254;10.400;2023-07-02T07:17:43;24.00;99.90
935;DHT22;454;53.254;10.400;2023-07-02T07:20:10;23.90;99.90
935;DHT22;454;53.254;10.400;2023-07-02T07:22:38;24.00;99.90
935;DHT22;454;53.254;10.400;2023-07-02T07:25:05;23.90;99.90
935;DHT22;454;53.254;10.400;2023-07-02T07:27:33;24.10;99.90
935;DHT22;454;53.254;10.400;2023-07-02T07:30:00;24.10;99.90
935;DHT22;454;53.254;10.400;2023-07-02T07:32:26;23.90;99.90
935;DHT22;454;53.254;10.400;2023-07-02T07:34:53;23.50;99.90
935;DHT22;454;53.254;10.400;2023-07-02T07:37:20;23.40;99.90
935;DHT22;454;53.254;10.400;2023-07-02T07:39:47;23.50;99.90
935;DHT22;454;53.254;10.400;2023-07-02T07:42:14;23.70;99.90
935;DHT22;454;53.254;10.400;2023-07-02T07:44:44;23.80;99.90
935;DHT22;454;53.254;10.400;2023-07-02T07:47:11;24.10;99.90
935;DHT22;454;53.254;10.400;2023-07-02T07:49:38;23.80;99.90
935;DHT22;454;53.254;10.400;2023-07-02T07:52:05;23.60;99.90
935;DHT22;454;53.254;10.400;2023-07-02T07:54:32;23.50;99.90
935;DHT22;454;53.254;10.400;2023-07-02T07:57:00;23.70;99.90
935;DHT22;454;53.254;10.400;2023-07-02T07:59:26;23.00;99.90
935;DHT22;454;53.254;10.400;2023-07-02T08:01:54;22.50;99.90
935;DHT22;454;53.254;10.400;2023-07-02T08:04:21;22.40;99.90
935;DHT22;454;53.254;10.400;2023-07-02T08:06:48;22.60;99.90
935;DHT22;454;53.254;10.400;2023-07-02T08:09:15;22.20;99.90
935;DHT22;454;53.254;10.400;2023-07-02T08:11:41;21.70;99.90
935;DHT22;454;53.254;10.400;2023-07-02T08:14:08;21.40;99.90
935;DHT22;454;53.254;10.400;2023-07-02T08:16:35;21.00;99.90
935;DHT22;454;53.254;10.400;2023-07-02T08:19:03;20.70;99.90
935;DHT22;454;53.254;10.400;2023-07-02T08:21:29;20.70;99.90
935;DHT22;454;53.254;10.400;2023-07-02T08:23:56;20.70;99.90
935;DHT22;454;53.254;10.400;2023-07-02T08:26:23;20.70;99.90
935;DHT22;454;53.254;10.400;2023-07-02T08:28:50;20.80;99.90
935;DHT22;454;53.254;10.400;2023-07-02T08:31:17;21.20;99.90
935;DHT22;454;53.254;10.400;2023-07-02T08:33:43;21.70;99.90
935;DHT22;454;53.254;10.400;2023-07-02T08:36:11;22.10;99.90
935;DHT22;454;53.254;10.400;2023-07-02T08:38:39;22.30;99.90
935;DHT22;454;53.254;10.400;2023-07-02T08:41:08;22.10;99.90
935;DHT22;454;53.254;10.400;2023-07-02T08:43:36;22.50;99.90
935;DHT22;454;53.254;10.400;2023-07-02T08:46:02;22.30;99.90
935;DHT22;454;53.254;10.400;2023-07-02T08:48:29;22.10;99.90
935;DHT22;454;53.254;10.400;2023-07-02T08:50:56;22.00;99.90
935;DHT22;454;53.254;10.400;2023-07-02T08:53:25;22.20;99.90
935;DHT22;454;53.254;10.400;2023-07-02T08:55:55;22.30;99.90
935;DHT22;454;53.254;10.400;2023-07-02T08:58:21;22.50;99.90
935;DHT22;454;53.254;10.400;2023-07-02T09:01:04;22.40;99.90
935;DHT22;454;53.254;10.400;2023-07-02T09:03:32;22.40;99.90
935;DHT22;454;53.254;10.400;2023-07-02T09:05:59;22.50;99.90
935;DHT22;454;53.254;10.400;2023-07-02T09:08:27;22.40;99.90
935;DHT22;454;53.254;10.400;2023-07-02T09:11:04;22.30;99.90
935;DHT22;454;53.254;10.400;2023-07-02T09:13:31;22.10;99.90
935;DHT22;454;53.254;10.400;2023-07-02T09:15:58;21.80;99.90
935;DHT22;454;53.254;10.400;2023-07-02T09:18:25;21.80;99.90
935;DHT22;454;53.254;10.400;2023-07-02T09:20:54;21.90;99.90
935;DHT22;454;53.254;10.400;2023-07-02T09:23:21;22.20;99.90
935;DHT22;454;53.254;10.400;2023-07-02T09:25:49;22.30;99.90
935;DHT22;454;53.254;10.400;2023-07-02T09:28:18;22.30;99.90
935;DHT22;454;53.254;10.400;2023-07-02T09:30:52;22.50;99.90
935;DHT22;454;53.254;10.400;2023-07-02T09:33:18;22.40;99.90
935;DHT22;454;53.254;10.400;2023-07-02T09:35:45;22.40;99.90
935;DHT22;454;53.254;10.400;2023-07-02T09:38:12;22.40;99.90
935;DHT22;454;53.254;10.400;2023-07-02T09:40:45;22.30;99.90
935;DHT22;454;53.254;10.400;2023-07-02T09:43:15;22.30;99.90
935;DHT22;454;53.254;10.400;2023-07-02T09:45:43;22.20;99.90
935;DHT22;454;53.254;10.400;2023-07-02T09:48:13;22.20;99.90
935;DHT22;454;53.254;10.400;2023-07-02T09:50:41;22.00;99.90
935;DHT22;454;53.254;10.400;2023-07-02T09:53:08;21.90;99.90
935;DHT22;454;53.254;10.400;2023-07-02T09:55:35;22.10;99.90
935;DHT22;454;53.254;10.400;2023-07-02T09:58:01;22.30;99.90
935;DHT22;454;53.254;10.400;2023-07-02T10:00:30;22.10;99.90
935;DHT22;454;53.254;10.400;2023-07-02T10:02:57;21.90;99.90
935;DHT22;454;53.254;10.400;2023-07-02T10:05:27;21.60;99.90
935;DHT22;454;53.254;10.400;2023-07-02T10:07:55;21.60;99.90
935;DHT22;454;53.254;10.400;2023-07-02T10:10:27;21.50;99.90
935;DHT22;454;53.254;10.400;2023-07-02T10:12:54;21.50;99.90
935;DHT22;454;53.254;10.400;2023-07-02T10:15:25;21.50;99.90
935;DHT22;454;53.254;10.400;2023-07-02T10:17:57;21.50;99.90
935;DHT22;454;53.254;10.400;2023-07-02T10:20:31;21.70;99.90
935;DHT22;454;53.254;10.400;2023-07-02T10:23:00;21.90;99.90
935;DHT22;454;53.254;10.400;2023-07-02T10:25:28;22.00;99.90
935;DHT22;454;53.254;10.400;2023-07-02T10:27:55;22.30;99.90
935;DHT22;454;53.254;10.400;2023-07-02T10:30:31;22.20;99.90
935;DHT22;454;53.254;10.400;2023-07-02T10:33:08;22.10;99.90
935;DHT22;454;53.254;10.400;2023-07-02T10:35:35;22.00;99.90
935;DHT22;454;53.254;10.400;2023-07-02T10:38:02;22.00;99.90
935;DHT22;454;53.254;10.400;2023-07-02T10:40:29;22.10;99.90
935;DHT22;454;53.254;10.400;2023-07-02T10:42:56;22.10;99.90
935;DHT22;454;53.254;10.400;2023-07-02T10:45:31;22.10;99.90
935;DHT22;454;53.254;10.400;2023-07-02T10:47:58;22.20;99.90
935;DHT22;454;53.254;10.400;2023-07-02T10:50:26;22.10;99.90
935;DHT22;454;53.254;10.400;2023-07-02T10:52:54;22.00;99.90
935;DHT22;454;53.254;10.400;2023-07-02T10:55:21;21.80;99.90
935;DHT22;454;53.254;10.400;2023-07-02T10:57:49;21.60;99.90
935;DHT22;454;53.254;10.400;2023-07-02T11:00:17;21.40;99.90
935;DHT22;454;53.254;10.400;2023-07-02T11:02:44;21.20;99.90
935;DHT22;454;53.254;10.400;2023-07-02T11:05:11;21.20;99.90
935;DHT22;454;53.254;10.400;2023-07-02T11:07:40;21.20;99.90
935;DHT22;454;53.254;10.400;2023-07-02T11:10:08;21.40;99.90
935;DHT22;454;53.254;10.400;2023-07-02T11:12:35;21.20;99.90
935;DHT22;454;53.254;10.400;2023-07-02T11:15:09;21.10;99.90
935;DHT22;454;53.254;10.400;2023-07-02T11:17:36;20.90;99.90
935;DHT22;454;53.254;10.400;2023-07-02T11:20:06;20.90;99.90
935;DHT22;454;53.254;10.400;2023-07-02T11:22:35;21.00;99.90
935;DHT22;454;53.254;10.400;2023-07-02T11:25:17;21.30;99.90
935;DHT22;454;53.254;10.400;2023-07-02T11:27:45;21.40;99.90
935;DHT22;454;53.254;10.400;2023-07-02T11:30:12;21.70;99.90
935;DHT22;454;53.254;10.400;2023-07-02T11:32:50;22.00;99.90
935;DHT22;454;53.254;10.400;2023-07-02T11:35:17;22.30;99.90
935;DHT22;454;53.254;10.400;2023-07-02T11:37:44;22.40;99.90
935;DHT22;454;53.254;10.400;2023-07-02T11:40:11;22.60;99.90
935;DHT22;454;53.254;10.400;2023-07-02T11:42:40;22.80;99.90
935;DHT22;454;53.254;10.400;2023-07-02T11:45:08;22.90;99.90
935;DHT22;454;53.254;10.400;2023-07-02T11:47:35;22.90;99.90
935;DHT22;454;53.254;10.400;2023-07-02T11:50:01;22.90;99.90
935;DHT22;454;53.254;10.400;2023-07-02T11:52:28;22.90;99.90
935;DHT22;454;53.254;10.400;2023-07-02T11:54:55;22.80;99.90
935;DHT22;454;53.254;10.400;2023-07-02T11:57:22;22.70;99.90
935;DHT22;454;53.254;10.400;2023-07-02T11:59:50;22.60;99.90
935;DHT22;454;53.254;10.400;2023-07-02T12:02:17;22.70;99.90
935;DHT22;454;53.254;10.400;2023-07-02T12:04:44;22.80;99.90
935;DHT22;454;53.254;10.400;2023-07-02T12:07:11;22.80;99.90
935;DHT22;454;53.254;10.400;2023-07-02T12:09:38;23.00;99.90
935;DHT22;454;53.254;10.400;2023-07-02T12:12:06;22.90;99.90
935;DHT22;454;53.254;10.400;2023-07-02T12:14:33;22.70;99.90
935;DHT22;454;53.254;10.400;2023-07-02T12:17:01;22.60;99.90
935;DHT22;454;53.254;10.400;2023-07-02T12:19:27;22.60;99.90
935;DHT22;454;53.254;10.400;2023-07-02T12:21:54;22.50;99.90
935;DHT22;454;53.254;10.400;2023-07-02T12:24:21;22.60;99.90
935;DHT22;454;53.254;10.400;2023-07-02T12:26:47;22.60;99.90
935;DHT22;454;53.254;10.400;2023-07-02T12:29:14;22.60;99.90
935;DHT22;454;53.254;10.400;2023-07-02T12:31:41;22.70;99.90
935;DHT22;454;53.254;10.400;2023-07-02T12:34:09;22.60;99.90
935;DHT22;454;53.254;10.400;2023-07-02T12:36:35;22.40;99.90
935;DHT22;454;53.254;10.400;2023-07-02T12:39:02;22.40;99.90
935;DHT22;454;53.254;10.400;2023-07-02T12:41:29;22.50;99.90
935;DHT22;454;53.254;10.400;2023-07-02T12:43:56;22.60;99.90
935;DHT22;454;53.254;10.400;2023-07-02T12:46:23;22.60;99.90
935;DHT22;454;53.254;10.400;2023-07-02T12:48:49;22.60;99.90
935;DHT22;454;53.254;10.400;2023-07-02T12:51:17;22.80;99.90
935;DHT22;454;53.254;10.400;2023-07-02T12:53:44;22.80;99.90
935;DHT22;454;53.254;10.400;2023-07-02T12:56:11;22.70;99.90
935;DHT22;454;53.254;10.400;2023-07-02T12:58:37;22.70;99.90
935;DHT22;454;53.254;10.400;2023-07-02T13:01:04;22.60;99.90
935;DHT22;454;53.254;10.400;2023-07-02T13:03:31;22.50;99.90
935;DHT22;454;53.254;10.400;2023-07-02T13:05:57;22.60;99.90
935;DHT22;454;53.254;10.400;2023-07-02T13:08:25;22.70;99.90
935;DHT22;454;53.254;10.400;2023-07-02T13:10:52;22.80;99.90
935;DHT22;454;53.254;10.400;2023-07-02T13:13:19;22.90;99.90
935;DHT22;454;53.254;10.400;2023-07-02T13:15:45;22.90;99.90
935;DHT22;454;53.254;10.400;2023-07-02T13:18:12;22.70;99.90
935;DHT22;454;53.254;10.400;2023-07-02T13:20:39;22.50;99.90
935;DHT22;454;53.254;10.400;2023-07-02T13:23:06;22.40;99.90
935;DHT22;454;53.254;10.400;2023-07-02T13:25:34;22.40;99.90
935;DHT22;454;53.254;10.400;2023-07-02T13:28:00;22.30;99.90
935;DHT22;454;53.254;10.400;2023-07-02T13:30:27;22.10;99.90
935;DHT22;454;53.254;10.400;2023-07-02T13:32:56;22.00;99.90
935;DHT22;454;53.254;10.400;2023-07-02T13:35:23;22.20;99.90
935;DHT22;454;53.254;10.400;2023-07-02T13:37:49;22.40;99.90
935;DHT22;454;53.254;10.400;2023-07-02T13:40:16;22.60;99.90
935;DHT22;454;53.254;10.400;2023-07-02T13:42:45;22.80;99.90
935;DHT22;454;53.254;10.400;2023-07-02T13:45:11;22.90;99.90
935;DHT22;454;53.254;10.400;2023-07-02T13:47:38;22.80;99.90
935;DHT22;454;53.254;10.400;2023-07-02T13:50:06;22.80;99.90
935;DHT22;454;53.254;10.400;2023-07-02T13:52:32;22.90;99.90
935;DHT22;454;53.254;10.400;2023-07-02T13:54:59;22.90;99.90
935;DHT22;454;53.254;10.400;2023-07-02T13:57:26;22.90;99.90
935;DHT22;454;53.254;10.400;2023-07-02T13:59:54;22.90;99.90
935;DHT22;454;53.254;10.400;2023-07-02T14:02:22;22.80;99.90
935;DHT22;454;53.254;10.400;2023-07-02T14:04:49;22.80;99.90
935;DHT22;454;53.254;10.400;2023-07-02T14:07:16;22.90;99.90
935;DHT22;454;53.254;10.400;2023-07-02T14:09:42;23.00;99.90
935;DHT22;454;53.254;10.400;2023-07-02T14:12:09;23.00;99.90
935;DHT22;454;53.254;10.400;2023-07-02T14:14:37;22.90;99.90
935;DHT22;454;53.254;10.400;2023-07-02T14:17:05;22.70;99.90
935;DHT22;454;53.254;10.400;2023-07-02T14:19:32;22.50;99.90
935;DHT22;454;53.254;10.400;2023-07-02T14:21:59;22.50;99.90
935;DHT22;454;53.254;10.400;2023-07-02T14:24:26;22.30;99.90
935;DHT22;454;53.254;10.400;2023-07-02T14:26:55;22.10;99.90
935;DHT22;454;53.254;10.400;2023-07-02T14:29:22;22.10;99.90
935;DHT22;454;53.254;10.400;2023-07-02T14:31:49;22.10;99.90
935;DHT22;454;53.254;10.400;2023-07-02T14:34:17;22.10;99.90
935;DHT22;454;53.254;10.400;2023-07-02T14:36:44;22.30;99.90
935;DHT22;454;53.254;10.400;2023-07-02T14:39:11;22.60;99.90
935;DHT22;454;53.254;10.400;2023-07-02T14:41:37;22.50;99.90
935;DHT22;454;53.254;10.400;2023-07-02T14:44:04;22.40;99.90
935;DHT22;454;53.254;10.400;2023-07-02T14:46:31;22.40;99.90
935;DHT22;454;53.254;10.400;2023-07-02T14:48:58;22.40;99.90
935;DHT22;454;53.254;10.400;2023-07-02T14:51:26;22.40;99.90
935;DHT22;454;53.254;10.400;2023-07-02T14:53:53;22.50;99.90
935;DHT22;454;53.254;10.400;2023-07-02T14:56:20;22.50;99.90
935;DHT22;454;53.254;10.400;2023-07-02T14:58:47;22.40;99.90
935;DHT22;454;53.254;10.400;2023-07-02T15:01:16;22.20;99.90
935;DHT22;454;53.254;10.400;2023-07-02T15:03:43;22.00;99.90
935;DHT22;454;53.254;10.400;2023-07-02T15:06:13;22.20;99.90
935;DHT22;454;53.254;10.400;2023-07-02T15:08:41;22.30;99.90
935;DHT22;454;53.254;10.400;2023-07-02T15:11:09;22.30;99.90
935;DHT22;454;53.254;10.400;2023-07-02T15:13:36;22.60;99.90
935;DHT22;454;53.254;10.400;2023-07-02T15:16:03;22.60;99.90
935;DHT22;454;53.254;10.400;2023-07-02T15:18:30;22.30;99.90
935;DHT22;454;53.254;10.400;2023-07-02T15:20:57;22.10;99.90
935;DHT22;454;53.254;10.400;2023-07-02T15:23:25;22.10;99.90
935;DHT22;454;53.254;10.400;2023-07-02T15:25:54;22.10;99.90
935;DHT22;454;53.254;10.400;2023-07-02T15:28:22;22.10;99.90
935;DHT22;454;53.254;10.400;2023-07-02T15:30:51;22.00;99.90
935;DHT22;454;53.254;10.400;2023-07-02T15:33:19;21.90;99.90
935;DHT22;454;53.254;10.400;2023-07-02T15:35:45;21.80;99.90
935;DHT22;454;53.254;10.400;2023-07-02T15:38:12;21.70;99.90
935;DHT22;454;53.254;10.400;2023-07-02T15:40:39;21.60;99.90
935;DHT22;454;53.254;10.400;2023-07-02T15:43:07;21.60;99.90
935;DHT22;454;53.254;10.400;2023-07-02T15:45:34;21.80;99.90
935;DHT22;454;53.254;10.400;2023-07-02T15:48:01;21.70;99.90
935;DHT22;454;53.254;10.400;2023-07-02T15:50:28;21.70;99.90
935;DHT22;454;53.254;10.400;2023-07-02T15:52:55;21.70;99.90
935;DHT22;454;53.254;10.400;2023-07-02T15:55:22;21.70;99.90
935;DHT22;454;53.254;10.400;2023-07-02T15:57:50;21.90;99.90
935;DHT22;454;53.254;10.400;2023-07-02T16:00:18;22.00;99.90
935;DHT22;454;53.254;10.400;2023-07-02T16:02:45;21.70;99.90
935;DHT22;454;53.254;10.400;2023-07-02T16:05:12;21.50;99.90
935;DHT22;454;53.254;10.400;2023-07-02T16:07:39;21.30;99.90
935;DHT22;454;53.254;10.400;2023-07-02T16:10:10;21.20;99.90
935;DHT22;454;53.254;10.400;2023-07-02T16:12:36;21.10;99.90
935;DHT22;454;53.254;10.400;2023-07-02T16:15:06;21.30;99.90
935;DHT22;454;53.254;10.400;2023-07-02T16:17:34;21.40;99.90
935;DHT22;454;53.254;10.400;2023-07-02T16:20:01;21.50;99.90
935;DHT22;454;53.254;10.400;2023-07-02T16:22:27;21.40;99.90
935;DHT22;454;53.254;10.400;2023-07-02T16:24:54;21.60;99.90
935;DHT22;454;53.254;10.400;2023-07-02T16:27:21;21.50;99.90
935;DHT22;454;53.254;10.400;2023-07-02T16:29:48;21.30;99.90
935;DHT22;454;53.254;10.400;2023-07-02T16:32:15;21.10;99.90
935;DHT22;454;53.254;10.400;2023-07-02T16:34:44;20.90;99.90
935;DHT22;454;53.254;10.400;2023-07-02T16:37:11;20.90;99.90
935;DHT22;454;53.254;10.400;2023-07-02T16:39:38;20.90;99.90
935;DHT22;454;53.254;10.400;2023-07-02T16:42:05;21.10;99.90
935;DHT22;454;53.254;10.400;2023-07-02T16:44:33;21.10;99.90
935;DHT22;454;53.254;10.400;2023-07-02T16:47:01;21.20;99.90
935;DHT22;454;53.254;10.400;2023-07-02T16:49:28;21.10;99.90
935;DHT22;454;53.254;10.400;2023-07-02T16:51:57;21.00;99.90
935;DHT22;454;53.254;10.400;2023-07-02T16:54:24;20.90;99.90
935;DHT22;454;53.254;10.400;2023-07-02T16:56:52;20.80;99.90
935;DHT22;454;53.254;10.400;2023-07-02T16:59:21;20.80;99.90
935;DHT22;454;53.254;10.400;2023-07-02T17:01:51;20.70;99.90
935;DHT22;454;53.254;10.400;2023-07-02T17:04:18;20.60;99.90
935;DHT22;454;53.254;10.400;2023-07-02T17:06:46;20.50;99.90
935;DHT22;454;53.254;10.400;2023-07-02T17:09:21;20.50;99.90
935;DHT22;454;53.254;10.400;2023-07-02T17:11:51;20.40;99.90
935;DHT22;454;53.254;10.400;2023-07-02T17:14:19;20.40;99.90
935;DHT22;454;53.254;10.400;2023-07-02T17:16:48;20.40;99.90
935;DHT22;454;53.254;10.400;2023-07-02T17:19:18;20.40;99.90
935;DHT22;454;53.254;10.400;2023-07-02T17:21:46;20.50;99.90
935;DHT22;454;53.254;10.400;2023-07-02T17:24:16;20.40;99.90
935;DHT22;454;53.254;10.400;2023-07-02T17:26:44;20.40;99.90
935;DHT22;454;53.254;10.400;2023-07-02T17:29:11;20.30;99.90
935;DHT22;454;53.254;10.400;2023-07-02T17:31:38;20.20;99.90
935;DHT22;454;53.254;10.400;2023-07-02T17:34:05;20.20;99.90
935;DHT22;454;53.254;10.400;2023-07-02T17:36:31;20.20;99.90
935;DHT22;454;53.254;10.400;2023-07-02T17:38:58;20.30;99.90
935;DHT22;454;53.254;10.400;2023-07-02T17:41:25;20.30;99.90
935;DHT22;454;53.254;10.400;2023-07-02T17:43:55;20.30;99.90
935;DHT22;454;53.254;10.400;2023-07-02T17:46:21;20.20;99.90
935;DHT22;454;53.254;10.400;2023-07-02T17:48:48;20.20;99.90
935;DHT22;454;53.254;10.400;2023-07-02T17:51:15;20.10;99.90
935;DHT22;454;53.254;10.400;2023-07-02T17:53:41;20.10;99.90
935;DHT22;454;53.254;10.400;2023-07-02T17:56:08;20.00;99.90
935;DHT22;454;53.254;10.400;2023-07-02T17:58:35;19.90;99.90
935;DHT22;454;53.254;10.400;2023-07-02T18:01:03;19.90;99.90
935;DHT22;454;53.254;10.400;2023-07-02T18:03:29;19.80;99.90
935;DHT22;454;53.254;10.400;2023-07-02T18:05:56;19.80;99.90
935;DHT22;454;53.254;10.400;2023-07-02T18:08:23;19.70;99.90
935;DHT22;454;53.254;10.400;2023-07-02T18:10:50;19.70;99.90
935;DHT22;454;53.254;10.400;2023-07-02T18:13:17;19.70;99.90
935;DHT22;454;53.254;10.400;2023-07-02T18:15:45;19.70;99.90
935;DHT22;454;53.254;10.400;2023-07-02T18:18:13;19.60;99.90
935;DHT22;454;53.254;10.400;2023-07-02T18:20:40;19.60;99.90
935;DHT22;454;53.254;10.400;2023-07-02T18:23:07;19.60;99.90
935;DHT22;454;53.254;10.400;2023-07-02T18:25:33;19.60;99.90
935;DHT22;454;53.254;10.400;2023-07-02T18:28:04;19.60;99.90
935;DHT22;454;53.254;10.400;2023-07-02T18:30:32;19.50;99.90
935;DHT22;454;53.254;10.400;2023-07-02T18:32:59;19.50;99.90
935;DHT22;454;53.254;10.400;2023-07-02T18:35:27;19.30;99.90
935;DHT22;454;53.254;10.400;2023-07-02T18:37:53;19.30;99.90
935;DHT22;454;53.254;10.400;2023-07-02T18:40:20;19.20;99.90
935;DHT22;454;53.254;10.400;2023-07-02T18:42:48;19.20;99.90
935;DHT22;454;53.254;10.400;2023-07-02T18:45:15;19.10;99.90
935;DHT22;454;53.254;10.400;2023-07-02T18:47:42;19.10;99.90
935;DHT22;454;53.254;10.400;2023-07-02T18:50:10;19.00;99.90
935;DHT22;454;53.254;10.400;2023-07-02T18:52:40;19.00;99.90
935;DHT22;454;53.254;10.400;2023-07-02T18:55:08;18.90;99.90
935;DHT22;454;53.254;10.400;2023-07-02T18:57:35;18.90;99.90
935;DHT22;454;53.254;10.400;2023-07-02T19:00:04;18.90;99.90
935;DHT22;454;53.254;10.400;2023-07-02T19:02:33;18.90;99.90
935;DHT22;454;53.254;10.400;2023-07-02T19:05:01;18.90;99.90
935;DHT22;454;53.254;10.400;2023-07-02T19:07:28;18.80;99.90
935;DHT22;454;53.254;10.400;2023-07-02T19:09:58;18.80;99.90
935;DHT22;454;53.254;10.400;2023-07-02T19:12:26;18.70;99.90
935;DHT22;454;53.254;10.400;2023-07-02T19:14:53;18.60;99.90
935;DHT22;454;53.254;10.400;2023-07-02T19:17:21;18.50;99.90
935;DHT22;454;53.254;10.400;2023-07-02T19:19:47;18.50;99.90
935;DHT22;454;53.254;10.400;2023-07-02T19:22:16;18.40;99.90
935;DHT22;454;53.254;10.400;2023-07-02T19:24:44;18.40;99.90
935;DHT22;454;53.254;10.400;2023-07-02T19:27:13;18.30;99.90
935;DHT22;454;53.254;10.400;2023-07-02T19:29:41;18.30;99.90
935;DHT22;454;53.254;10.400;2023-07-02T19:32:08;18.20;99.90
935;DHT22;454;53.254;10.400;2023-07-02T19:34:35;18.20;99.90
935;DHT22;454;53.254;10.400;2023-07-02T19:37:02;18.10;99.90
935;DHT22;454;53.254;10.400;2023-07-02T19:39:31;18.10;99.90
935;DHT22;454;53.254;10.400;2023-07-02T19:41:59;18.00;99.90
935;DHT22;454;53.254;10.400;2023-07-02T19:44:27;17.90;99.90
935;DHT22;454;53.254;10.400;2023-07-02T19:46:54;17.90;99.90
935;DHT22;454;53.254;10.400;2023-07-02T19:49:21;17.80;99.90
935;DHT22;454;53.254;10.400;2023-07-02T19:51:48;17.80;99.90
935;DHT22;454;53.254;10.400;2023-07-02T19:54:16;17.70;99.90
935;DHT22;454;53.254;10.400;2023-07-02T19:56:43;17.70;99.90
935;DHT22;454;53.254;10.400;2023-07-02T19:59:10;17.70;99.90
935;DHT22;454;53.254;10.400;2023-07-02T20:01:38;17.60;99.90
935;DHT22;454;53.254;10.400;2023-07-02T20:04:05;17.60;99.90
935;DHT22;454;53.254;10.400;2023-07-02T20:06:33;17.60;99.90
935;DHT22;454;53.254;10.400;2023-07-02T20:09:01;17.60;99.90
935;DHT22;454;53.254;10.400;2023-07-02T20:11:28;17.60;99.90
935;DHT22;454;53.254;10.400;2023-07-02T20:13:54;17.60;99.90
935;DHT22;454;53.254;10.400;2023-07-02T20:16:21;17.50;99.90
935;DHT22;454;53.254;10.400;2023-07-02T20:18:54;17.50;99.90